createdAt,value
2023-05-16T00:01:04.941Z,7.20
2023-05-16T00:03:38.899Z,7.80
2023-05-16T00:06:12.337Z,10.07
2023-05-16T00:08:45.656Z,7.70
2023-05-16T00:11:18.994Z,6.47
2023-05-16T00:13:52.435Z,8.27
2023-05-16T00:16:26.045Z,4.50
2023-05-16T00:19:01.177Z,9.80
2023-05-16T00:21:34.880Z,8.03
2023-05-16T00:24:08.197Z,7.40
2023-05-16T00:26:41.568Z,10.13
2023-05-16T00:29:14.802Z,15.63
2023-05-16T00:31:48.090Z,8.10
2023-05-16T00:34:22.881Z,8.73
2023-05-16T00:36:56.214Z,7.80
2023-05-16T00:39:29.569Z,7.80
2023-05-16T00:42:02.817Z,6.70
2023-05-16T00:44:36.064Z,7.23
2023-05-16T00:47:09.263Z,10.33
2023-05-16T00:49:42.644Z,6.23
2023-05-16T00:52:16.448Z,10.17
2023-05-16T00:54:49.612Z,9.80
2023-05-16T00:57:22.852Z,6.30
2023-05-16T00:59:56.155Z,7.80
2023-05-16T01:02:29.855Z,12.50
2023-05-16T01:05:05.292Z,9.53
2023-05-16T01:07:38.955Z,10.40
2023-05-16T01:10:12.518Z,5.20
2023-05-16T01:12:54.535Z,11.53
2023-05-16T01:15:33.528Z,7.50
2023-05-16T01:18:16.502Z,10.43
2023-05-16T01:20:49.647Z,10.83
2023-05-16T01:23:37.698Z,7.03
2023-05-16T01:26:12.930Z,8.53
2023-05-16T01:28:46.918Z,6.43
2023-05-16T01:31:20.905Z,10.93
2023-05-16T01:33:54.314Z,8.30
2023-05-16T01:36:37.080Z,7.70
2023-05-16T01:39:16.943Z,6.37
2023-05-16T01:42:02.315Z,10.70
2023-05-16T01:44:42.126Z,6.53
2023-05-16T01:47:17.287Z,8.83
2023-05-16T01:50:10.884Z,8.30
2023-05-16T01:52:51.084Z,6.20
2023-05-16T01:55:44.566Z,12.90
2023-05-16T01:58:18.699Z,12.07
2023-05-16T02:00:53.773Z,9.00
2023-05-16T02:03:27.047Z,11.20
2023-05-16T02:06:00.705Z,9.00
2023-05-16T02:08:34.206Z,9.77
2023-05-16T02:11:07.420Z,9.90
2023-05-16T02:13:40.664Z,11.27
2023-05-16T02:16:13.979Z,7.77
2023-05-16T02:18:47.242Z,9.77
2023-05-16T02:21:20.469Z,7.10
2023-05-16T02:23:53.794Z,9.80
2023-05-16T02:26:27.008Z,10.00
2023-05-16T02:29:00.267Z,6.97
2023-05-16T02:31:37.302Z,7.30
2023-05-16T02:34:11.143Z,6.70
2023-05-16T02:36:44.403Z,15.23
2023-05-16T02:39:17.603Z,10.37
2023-05-16T02:41:50.811Z,11.60
2023-05-16T02:44:24.060Z,10.50
2023-05-16T02:46:57.505Z,8.30
2023-05-16T02:49:31.054Z,14.20
2023-05-16T02:52:04.413Z,10.17
2023-05-16T02:54:37.615Z,11.60
2023-05-16T02:57:10.772Z,9.30
2023-05-16T02:59:43.968Z,8.53
2023-05-16T03:02:17.197Z,10.20
2023-05-16T03:04:50.417Z,11.03
2023-05-16T03:07:23.625Z,12.17
2023-05-16T03:09:56.847Z,11.07
2023-05-16T03:12:30.130Z,8.00
2023-05-16T03:15:04.101Z,17.33
2023-05-16T03:17:37.404Z,9.70
2023-05-16T03:20:11.406Z,9.17
2023-05-16T03:22:45.276Z,8.80
2023-05-16T03:25:18.467Z,11.97
2023-05-16T03:27:51.627Z,17.37
2023-05-16T03:30:25.761Z,11.73
2023-05-16T03:32:59.117Z,7.40
2023-05-16T03:35:32.860Z,15.03
2023-05-16T03:38:06.339Z,12.13
2023-05-16T03:40:39.677Z,9.87
2023-05-16T03:43:12.913Z,14.63
2023-05-16T03:45:46.265Z,10.80
2023-05-16T03:48:19.547Z,15.27
2023-05-16T03:50:52.759Z,16.77
2023-05-16T03:53:26.036Z,13.50
2023-05-16T03:55:59.739Z,8.73
2023-05-16T03:58:32.951Z,14.70
2023-05-16T04:01:06.250Z,7.27
2023-05-16T04:03:39.503Z,13.60
2023-05-16T04:06:12.708Z,11.90
2023-05-16T04:08:46.051Z,10.00
2023-05-16T04:11:19.306Z,10.70
2023-05-16T04:13:54.004Z,16.40
2023-05-16T04:16:27.323Z,9.13
2023-05-16T04:19:00.698Z,14.30
2023-05-16T04:21:34.148Z,12.07
2023-05-16T04:24:07.929Z,8.57
2023-05-16T04:26:41.158Z,22.57
2023-05-16T04:29:14.740Z,14.53
2023-05-16T04:31:48.393Z,11.70
2023-05-16T04:34:23.138Z,14.90
2023-05-16T04:36:56.462Z,9.17
2023-05-16T04:39:29.848Z,11.60
2023-05-16T04:42:04.373Z,10.93
2023-05-16T04:44:37.670Z,12.47
2023-05-16T04:47:11.592Z,11.67
2023-05-16T04:49:45.323Z,10.60
2023-05-16T04:52:19.799Z,13.37
2023-05-16T04:54:53.054Z,13.53
2023-05-16T04:57:26.299Z,12.50
2023-05-16T04:59:59.466Z,9.83
2023-05-16T05:02:32.720Z,20.10
2023-05-16T05:05:06.984Z,11.03
2023-05-16T05:07:40.952Z,23.60
2023-05-16T05:10:14.424Z,21.10
2023-05-16T05:12:47.629Z,7.43
2023-05-16T05:15:20.858Z,10.57
2023-05-16T05:17:54.393Z,7.63
2023-05-16T05:20:28.068Z,10.33
2023-05-16T05:23:01.616Z,8.80
2023-05-16T05:25:37.763Z,9.87
2023-05-16T05:28:11.221Z,9.37
2023-05-16T05:30:44.438Z,10.87
2023-05-16T05:33:21.572Z,12.60
2023-05-16T05:35:55.484Z,15.93
2023-05-16T05:38:29.039Z,12.23
2023-05-16T05:41:02.285Z,10.20
2023-05-16T05:43:35.572Z,15.23
2023-05-16T05:46:08.877Z,17.63
2023-05-16T05:48:42.113Z,13.10
2023-05-16T05:51:15.566Z,28.73
2023-05-16T05:53:48.840Z,10.43
2023-05-16T05:56:22.016Z,13.43
2023-05-16T05:58:55.291Z,13.57
2023-05-16T06:01:28.556Z,13.70
2023-05-16T06:04:02.508Z,13.10
2023-05-16T06:06:36.935Z,14.17
2023-05-16T06:09:10.153Z,21.33
2023-05-16T06:11:45.836Z,14.97
2023-05-16T06:14:19.140Z,18.43
2023-05-16T06:17:00.760Z,16.00
2023-05-16T06:19:55.767Z,18.80
2023-05-16T06:22:29.319Z,18.20
2023-05-16T06:25:02.638Z,18.17
2023-05-16T06:27:39.465Z,13.27
2023-05-16T06:30:13.169Z,16.77
2023-05-16T06:32:46.416Z,19.00
2023-05-16T06:35:19.734Z,22.93
2023-05-16T06:37:52.889Z,25.40
2023-05-16T06:40:26.097Z,15.77
2023-05-16T06:42:59.336Z,24.80
2023-05-16T06:45:32.610Z,16.70
2023-05-16T06:48:07.505Z,33.17
2023-05-16T06:50:40.803Z,24.70
2023-05-16T06:53:14.091Z,25.63
2023-05-16T06:55:47.899Z,21.97
2023-05-16T06:58:21.642Z,20.50
2023-05-16T07:00:54.941Z,27.57
2023-05-16T07:03:28.315Z,21.70
2023-05-16T07:06:01.663Z,18.33
2023-05-16T07:08:37.108Z,17.00
2023-05-16T07:11:11.963Z,22.53
2023-05-16T07:13:45.407Z,31.00
2023-05-16T07:16:18.708Z,27.43
2023-05-16T07:18:52.530Z,22.23
2023-05-16T07:21:25.876Z,26.73
2023-05-16T07:23:59.124Z,22.97
2023-05-16T07:26:32.425Z,17.67
2023-05-16T07:29:05.742Z,21.80
2023-05-16T07:31:39.671Z,26.33
2023-05-16T07:34:12.891Z,29.00
2023-05-16T07:36:46.135Z,14.13
2023-05-16T07:39:19.380Z,16.93
2023-05-16T07:41:52.656Z,15.37
2023-05-16T07:44:25.982Z,12.23
2023-05-16T07:46:59.426Z,30.33
2023-05-16T07:49:32.716Z,18.57
2023-05-16T07:52:06.152Z,14.67
2023-05-16T07:54:39.474Z,12.67
2023-05-16T07:57:12.792Z,10.77
2023-05-16T07:59:46.913Z,17.97
2023-05-16T08:02:20.339Z,37.87
2023-05-16T08:04:53.841Z,10.07
2023-05-16T08:07:27.293Z,8.30
2023-05-16T08:10:00.542Z,10.40
2023-05-16T08:12:33.964Z,8.63
2023-05-16T08:15:07.684Z,7.03
2023-05-16T08:17:41.058Z,7.90
2023-05-16T08:20:14.716Z,4.80
2023-05-16T08:22:48.692Z,14.07
2023-05-16T08:25:22.448Z,12.00
2023-05-16T08:27:55.728Z,5.87
2023-05-16T08:30:29.778Z,5.93
2023-05-16T08:33:05.125Z,20.83
2023-05-16T08:35:38.444Z,7.13
2023-05-16T08:38:11.758Z,6.43
2023-05-16T08:40:45.728Z,10.37
2023-05-16T08:43:19.025Z,11.80
2023-05-16T08:45:52.340Z,7.70
2023-05-16T08:48:26.552Z,5.60
2023-05-16T08:51:01.800Z,5.80
2023-05-16T08:53:41.382Z,7.50
2023-05-16T08:56:15.409Z,8.53
2023-05-16T08:58:49.412Z,25.40
2023-05-16T09:01:23.441Z,8.73
2023-05-16T09:03:57.361Z,7.73
2023-05-16T09:06:31.025Z,10.10
2023-05-16T09:09:07.687Z,5.97
2023-05-16T09:11:41.167Z,8.67
2023-05-16T09:14:14.469Z,6.13
2023-05-16T09:17:03.973Z,11.60
2023-05-16T09:19:41.250Z,11.60
2023-05-16T09:22:17.375Z,9.63
2023-05-16T09:24:50.643Z,5.23
2023-05-16T09:27:23.876Z,5.93
2023-05-16T09:29:58.263Z,8.43
2023-05-16T09:32:32.628Z,8.33
2023-05-16T09:35:06.199Z,7.63
2023-05-16T09:37:44.806Z,6.97
2023-05-16T09:40:21.597Z,7.60
2023-05-16T09:43:08.571Z,10.30
2023-05-16T09:45:46.484Z,7.60
2023-05-16T09:48:19.911Z,6.17
2023-05-16T09:50:54.442Z,10.80
2023-05-16T09:53:28.666Z,5.77
2023-05-16T09:56:02.789Z,8.70
2023-05-16T09:58:36.764Z,6.70
2023-05-16T10:01:10.827Z,8.50
2023-05-16T10:03:44.227Z,6.50
2023-05-16T10:06:17.806Z,8.17
2023-05-16T10:08:51.761Z,7.93
2023-05-16T10:11:25.162Z,10.00
2023-05-16T10:13:58.381Z,10.67
2023-05-16T10:16:32.369Z,6.90
2023-05-16T10:19:05.834Z,8.80
2023-05-16T10:21:39.615Z,9.03
2023-05-16T10:24:15.801Z,5.80
2023-05-16T10:26:49.186Z,6.20
2023-05-16T10:29:22.606Z,11.50
2023-05-16T10:31:55.959Z,8.63
2023-05-16T10:34:30.040Z,8.90
2023-05-16T10:37:03.743Z,8.00
2023-05-16T10:39:37.255Z,9.23
2023-05-16T10:42:11.896Z,6.77
2023-05-16T10:44:54.697Z,5.00
2023-05-16T10:47:35.836Z,8.97
2023-05-16T10:50:09.216Z,4.67
2023-05-16T10:52:42.459Z,9.63
2023-05-16T10:55:15.809Z,7.47
2023-05-16T10:57:49.070Z,9.47
2023-05-16T11:00:25.660Z,6.87
2023-05-16T11:03:25.441Z,11.23
2023-05-16T11:06:02.075Z,6.13
2023-05-16T11:08:35.746Z,6.00
2023-05-16T11:11:27.817Z,6.80
2023-05-16T11:14:03.990Z,9.60
2023-05-16T11:16:37.443Z,7.17
2023-05-16T11:19:10.753Z,6.13
2023-05-16T11:22:02.977Z,11.40
2023-05-16T11:24:38.048Z,9.10
2023-05-16T11:27:14.497Z,7.53
2023-05-16T11:29:47.816Z,8.77
2023-05-16T11:32:22.508Z,5.90
2023-05-16T11:34:55.895Z,5.10
2023-05-16T11:37:29.718Z,4.87
2023-05-16T11:40:04.387Z,7.03
2023-05-16T11:42:58.006Z,5.80
2023-05-16T11:45:33.245Z,11.50
2023-05-16T11:48:08.074Z,6.33
2023-05-16T11:50:41.412Z,4.77
2023-05-16T11:53:14.728Z,5.50
2023-05-16T11:55:54.799Z,5.30
2023-05-16T11:58:29.271Z,5.23
2023-05-16T12:01:05.450Z,6.37
2023-05-16T12:03:39.512Z,7.33
2023-05-16T12:06:12.917Z,5.60
2023-05-16T12:08:52.263Z,8.50
2023-05-16T12:11:25.914Z,5.93
2023-05-16T12:13:59.243Z,12.10
2023-05-16T12:16:33.055Z,6.80
2023-05-16T12:19:07.284Z,6.40
2023-05-16T12:21:41.833Z,8.03
2023-05-16T12:24:15.620Z,4.87
2023-05-16T12:26:48.830Z,5.97
2023-05-16T12:29:27.767Z,8.30
2023-05-16T12:32:01.579Z,6.40
2023-05-16T12:34:34.905Z,5.67
2023-05-16T12:37:08.177Z,3.57
2023-05-16T12:39:41.479Z,4.70
2023-05-16T12:42:15.053Z,6.93
2023-05-16T12:44:48.433Z,8.63
2023-05-16T12:47:21.697Z,8.00
2023-05-16T12:49:55.661Z,3.90
2023-05-16T12:52:29.916Z,9.73
2023-05-16T12:55:03.231Z,5.73
2023-05-16T12:57:38.690Z,2.93
2023-05-16T13:00:13.416Z,4.50
2023-05-16T13:02:47.910Z,5.60
2023-05-16T13:05:24.295Z,4.97
2023-05-16T13:07:58.163Z,4.53
2023-05-16T13:10:31.418Z,6.07
2023-05-16T13:13:04.802Z,4.70
2023-05-16T13:15:38.270Z,4.20
2023-05-16T13:18:11.824Z,4.07
2023-05-16T13:20:45.362Z,5.57
2023-05-16T13:23:19.048Z,4.93
2023-05-16T13:25:53.210Z,9.63
2023-05-16T13:28:26.652Z,5.37
2023-05-16T13:31:00.849Z,4.73
2023-05-16T13:33:36.109Z,5.70
2023-05-16T13:36:09.733Z,5.40
2023-05-16T13:38:43.220Z,3.80
2023-05-16T13:41:16.519Z,6.50
2023-05-16T13:43:49.780Z,5.07
2023-05-16T13:46:23.094Z,5.90
2023-05-16T13:48:56.445Z,3.83
2023-05-16T13:51:29.768Z,4.63
2023-05-16T13:54:03.128Z,4.20
2023-05-16T13:56:36.465Z,6.20
2023-05-16T13:59:20.709Z,3.13
2023-05-16T14:02:01.244Z,5.90
2023-05-16T14:04:34.876Z,16.53
2023-05-16T14:07:08.115Z,3.83
2023-05-16T14:09:41.406Z,3.17
2023-05-16T14:12:14.957Z,9.23
2023-05-16T14:14:48.490Z,10.90
2023-05-16T14:17:25.073Z,4.53
2023-05-16T14:19:58.686Z,6.40
2023-05-16T14:22:32.500Z,8.30
2023-05-16T14:25:06.308Z,2.70
2023-05-16T14:27:39.878Z,3.13
2023-05-16T14:30:13.422Z,3.17
2023-05-16T14:32:46.801Z,2.70
2023-05-16T14:35:20.541Z,2.53
2023-05-16T14:37:54.040Z,5.57
2023-05-16T14:40:27.973Z,7.50
2023-05-16T14:43:03.944Z,6.43
2023-05-16T14:45:38.215Z,4.17
2023-05-16T14:48:11.498Z,4.60
2023-05-16T14:50:44.819Z,5.20
2023-05-16T14:53:18.146Z,3.53
2023-05-16T14:55:51.887Z,1.80
2023-05-16T14:58:25.251Z,5.70
2023-05-16T15:00:58.595Z,7.70
2023-05-16T15:03:40.557Z,5.50
2023-05-16T15:06:25.238Z,3.83
2023-05-16T15:08:58.519Z,4.00
2023-05-16T15:11:32.225Z,2.03
2023-05-16T15:14:07.303Z,5.00
2023-05-16T15:16:40.837Z,3.50
2023-05-16T15:19:14.258Z,2.07
2023-05-16T15:21:47.609Z,7.07
2023-05-16T15:24:21.017Z,15.50
2023-05-16T15:26:54.376Z,5.20
2023-05-16T15:29:27.840Z,3.00
2023-05-16T15:32:04.552Z,10.93
2023-05-16T15:34:39.230Z,2.07
2023-05-16T15:37:12.544Z,7.87
2023-05-16T15:39:45.993Z,2.47
2023-05-16T15:42:20.249Z,1.93
2023-05-16T15:44:53.635Z,11.63
2023-05-16T15:47:27.517Z,8.93
2023-05-16T15:50:00.970Z,2.57
2023-05-16T15:52:35.972Z,3.20
2023-05-16T15:55:09.513Z,5.33
2023-05-16T15:57:43.849Z,4.97
2023-05-16T16:00:17.365Z,7.20
2023-05-16T16:02:50.735Z,7.40
2023-05-16T16:05:24.256Z,7.07
2023-05-16T16:07:57.694Z,3.80
2023-05-16T16:10:31.377Z,3.27
2023-05-16T16:13:05.125Z,5.03
2023-05-16T16:15:41.232Z,2.13
2023-05-16T16:18:14.666Z,2.63
2023-05-16T16:20:48.034Z,1.40
2023-05-16T16:23:25.889Z,4.03
2023-05-16T16:26:00.680Z,1.53
2023-05-16T16:28:34.173Z,2.30
2023-05-16T16:31:07.553Z,2.43
2023-05-16T16:33:42.307Z,4.87
2023-05-16T16:36:16.474Z,1.83
2023-05-16T16:38:49.966Z,2.40
2023-05-16T16:41:23.206Z,6.80
2023-05-16T16:43:56.883Z,2.40
2023-05-16T16:46:30.445Z,2.03
2023-05-16T16:49:04.084Z,1.57
2023-05-16T16:51:38.040Z,5.63
2023-05-16T16:54:11.291Z,6.17
2023-05-16T16:56:47.214Z,3.10
2023-05-16T16:59:21.029Z,3.27
2023-05-16T17:01:54.368Z,7.90
2023-05-16T17:04:27.661Z,3.17
2023-05-16T17:07:01.115Z,3.27
2023-05-16T17:09:35.820Z,10.67
2023-05-16T17:12:19.822Z,2.70
2023-05-16T17:14:53.583Z,7.07
2023-05-16T17:17:27.102Z,2.13
2023-05-16T17:20:04.641Z,0.90
2023-05-16T17:22:45.200Z,2.23
2023-05-16T17:25:18.937Z,3.00
2023-05-16T17:27:52.417Z,6.17
2023-05-16T17:30:26.291Z,3.70
2023-05-16T17:32:59.806Z,5.90
2023-05-16T17:35:33.829Z,5.43
2023-05-16T17:38:07.426Z,5.70
2023-05-16T17:40:40.699Z,2.90
2023-05-16T17:43:14.022Z,4.60
2023-05-16T17:45:47.280Z,4.83
2023-05-16T17:48:20.560Z,3.00
2023-05-16T17:50:53.970Z,1.97
2023-05-16T17:53:27.284Z,2.57
2023-05-16T17:56:03.311Z,8.63
2023-05-16T17:58:36.564Z,5.33
2023-05-16T18:01:10.312Z,5.80
2023-05-16T18:03:43.630Z,2.33
2023-05-16T18:06:17.060Z,4.90
2023-05-16T18:08:50.340Z,14.43
2023-05-16T18:11:23.696Z,4.53
2023-05-16T18:13:56.953Z,3.87
2023-05-16T18:16:30.799Z,7.40
2023-05-16T18:19:08.762Z,3.43
2023-05-16T18:21:44.286Z,4.77
2023-05-16T18:24:17.559Z,4.20
2023-05-16T18:26:51.093Z,6.20
2023-05-16T18:29:25.137Z,3.93
2023-05-16T18:32:00.054Z,10.23
2023-05-16T18:34:34.052Z,3.70
2023-05-16T18:37:07.404Z,3.20
2023-05-16T18:39:42.913Z,4.27
2023-05-16T18:42:19.148Z,3.43
2023-05-16T18:44:52.417Z,5.50
2023-05-16T18:47:25.786Z,1.73
2023-05-16T18:49:59.082Z,13.07
2023-05-16T18:52:34.213Z,6.43
2023-05-16T18:55:07.819Z,2.40
2023-05-16T18:57:41.691Z,3.67
2023-05-16T19:00:15.198Z,4.27
2023-05-16T19:02:51.146Z,1.30
2023-05-16T19:05:24.937Z,8.53
2023-05-16T19:07:58.547Z,1.77
2023-05-16T19:10:37.757Z,2.53
2023-05-16T19:13:11.040Z,2.53
2023-05-16T19:15:44.307Z,6.73
2023-05-16T19:18:18.033Z,2.23
2023-05-16T19:20:51.924Z,2.03
2023-05-16T19:23:25.362Z,2.20
2023-05-16T19:25:58.685Z,1.97
2023-05-16T19:28:32.510Z,4.77
2023-05-16T19:31:06.766Z,1.93
2023-05-16T19:33:40.226Z,4.70
2023-05-16T19:36:13.486Z,5.13
2023-05-16T19:38:46.752Z,2.70
2023-05-16T19:41:20.024Z,4.40
2023-05-16T19:43:53.284Z,4.03
2023-05-16T19:46:26.569Z,1.40
2023-05-16T19:48:59.891Z,3.00
2023-05-16T19:51:41.319Z,4.13
2023-05-16T19:54:15.703Z,1.90
2023-05-16T19:56:49.103Z,2.20
2023-05-16T19:59:22.596Z,9.30
2023-05-16T20:01:55.963Z,7.83
2023-05-16T20:04:29.381Z,2.80
2023-05-16T20:07:02.831Z,2.70
2023-05-16T20:09:36.073Z,9.27
2023-05-16T20:12:09.630Z,2.03
2023-05-16T20:14:42.969Z,1.60
2023-05-16T20:17:16.241Z,1.87
2023-05-16T20:19:49.537Z,3.33
2023-05-16T20:22:22.974Z,8.23
2023-05-16T20:24:56.400Z,3.30
2023-05-16T20:27:31.709Z,3.03
2023-05-16T20:30:06.661Z,2.63
2023-05-16T20:32:40.099Z,4.10
2023-05-16T20:35:14.865Z,3.47
2023-05-16T20:37:48.105Z,2.70
2023-05-16T20:40:21.644Z,1.87
2023-05-16T20:42:54.950Z,2.20
2023-05-16T20:45:31.055Z,6.83
2023-05-16T20:48:04.420Z,5.20
2023-05-16T20:50:38.945Z,4.60
2023-05-16T20:53:12.284Z,1.37
2023-05-16T20:55:45.655Z,6.63
2023-05-16T20:58:18.984Z,4.90
2023-05-16T21:00:52.223Z,1.77
2023-05-16T21:03:25.570Z,5.67
2023-05-16T21:05:58.834Z,8.40
2023-05-16T21:08:32.108Z,3.13
2023-05-16T21:11:05.376Z,1.30
2023-05-16T21:13:38.636Z,5.33
2023-05-16T21:16:12.670Z,1.30
2023-05-16T21:18:46.140Z,1.73
2023-05-16T21:21:19.710Z,1.77
2023-05-16T21:23:52.984Z,1.10
2023-05-16T21:26:26.275Z,4.53
2023-05-16T21:28:59.568Z,2.13
2023-05-16T21:31:32.827Z,1.10
2023-05-16T21:34:06.218Z,1.67
2023-05-16T21:36:39.587Z,3.27
2023-05-16T21:39:12.805Z,1.80
2023-05-16T21:41:46.219Z,5.43
2023-05-16T21:44:19.506Z,2.97
2023-05-16T21:46:54.222Z,2.23
2023-05-16T21:49:27.513Z,1.10
2023-05-16T21:52:00.883Z,1.20
2023-05-16T21:54:34.113Z,2.30
2023-05-16T21:57:07.449Z,1.87
2023-05-16T21:59:40.711Z,1.00
2023-05-16T22:02:13.967Z,2.87
2023-05-16T22:04:47.219Z,1.43
2023-05-16T22:07:20.820Z,2.37
2023-05-16T22:09:54.732Z,2.80
2023-05-16T22:12:28.620Z,1.50
2023-05-16T22:15:01.821Z,1.83
2023-05-16T22:17:35.125Z,1.90
2023-05-16T22:20:08.753Z,1.07
2023-05-16T22:22:42.024Z,2.90
2023-05-16T22:25:15.712Z,1.83
2023-05-16T22:27:49.047Z,1.87
2023-05-16T22:30:22.266Z,2.23
2023-05-16T22:32:57.083Z,1.77
2023-05-16T22:35:33.283Z,3.67
2023-05-16T22:38:06.477Z,3.30
2023-05-16T22:40:41.139Z,1.67
2023-05-16T22:43:14.511Z,4.63
2023-05-16T22:45:47.747Z,5.67
2023-05-16T22:48:21.188Z,1.50
2023-05-16T22:50:54.446Z,3.43
2023-05-16T22:53:27.699Z,6.00
2023-05-16T22:56:00.999Z,4.80
2023-05-16T22:58:34.509Z,1.50
2023-05-16T23:01:07.758Z,2.73
2023-05-16T23:03:41.118Z,1.20
2023-05-16T23:06:14.379Z,4.40
2023-05-16T23:08:47.587Z,0.90
2023-05-16T23:11:22.104Z,1.30
2023-05-16T23:13:55.662Z,1.07
2023-05-16T23:16:28.937Z,1.10
2023-05-16T23:19:02.397Z,1.63
2023-05-16T23:21:36.194Z,3.23
2023-05-16T23:24:09.525Z,3.27
2023-05-16T23:26:42.733Z,1.00
2023-05-16T23:29:16.181Z,1.40
2023-05-16T23:31:49.388Z,1.17
2023-05-16T23:34:22.627Z,1.20
2023-05-16T23:36:55.960Z,2.97
2023-05-16T23:39:29.309Z,0.90
2023-05-16T23:42:02.623Z,1.00
2023-05-16T23:44:35.913Z,1.20
2023-05-16T23:47:09.451Z,8.60
2023-05-16T23:49:42.724Z,1.53
2023-05-16T23:52:16.005Z,5.90
2023-05-16T23:54:49.201Z,12.13
2023-05-16T23:57:22.429Z,1.20
2023-05-16T23:59:55.694Z,2.33
